| time (UTC) | temp C | wind direction | speed KPH | gust KPH | rain 1hr cm | rain 24hr cm | rain mn cm | humidity % | barometer mb |
| 20260906091103 | 16 | 149 | 0.0 | 0.0 | 0.00 | 0.66 | 0.66 | 89 | 1011.9 |
| 20260906090603 | 16 | 149 | 0.0 | 0.0 | 0.00 | 0.66 | 0.66 | 89 | 1011.9 |
| 20260906090104 | 16 | 149 | 0.0 | 0.0 | 0.00 | 0.66 | 0.66 | 89 | 1011.8 |
| 20260906085604 | 16 | 149 | 0.0 | 1.6 | 0.00 | 0.66 | 0.66 | 89 | 1011.8 |
| 20260906085103 | 16 | 149 | 0.0 | 1.6 | 0.00 | 0.66 | 0.66 | 89 | 1011.8 |
| 20260906084604 | 16 | 149 | 1.6 | 3.2 | 0.00 | 0.66 | 0.66 | 89 | 1011.8 |
| 20260906083604 | 16 | 149 | 0.0 | 1.6 | 0.00 | 0.66 | 0.66 | 89 | 1011.8 |
| 20260906083104 | 17 | 149 | 1.6 | 9.7 | 0.00 | 0.66 | 0.66 | 89 | 1011.7 |
| 20260906082603 | 17 | 158 | 3.2 | 8.0 | 0.00 | 0.66 | 0.66 | 89 | 1011.7 |
| 20260906082104 | 17 | 145 | 4.8 | 11.3 | 0.00 | 0.66 | 0.66 | 89 | 1011.7 |
| 20260906081104 | 17 | 153 | 3.2 | 4.8 | 0.00 | 0.66 | 0.66 | 89 | 1011.9 |
| 20260906080104 | 17 | 121 | 0.0 | 0.0 | 0.00 | 0.66 | 0.66 | 89 | 1011.9 |
| 20260906075603 | 17 | 121 | 1.6 | 3.2 | 0.00 | 0.66 | 0.66 | 89 | 1011.8 |
| 20260906075103 | 17 | 150 | 0.0 | 3.2 | 0.00 | 0.66 | 0.66 | 89 | 1011.8 |
| 20260906074603 | 17 | 150 | 0.0 | 0.0 | 0.00 | 0.66 | 0.66 | 89 | 1011.8 |
| 20260906074104 | 17 | 150 | 0.0 | 3.2 | 0.00 | 0.66 | 0.66 | 89 | 1011.8 |
| 20260906073103 | 17 | 145 | 1.6 | 4.8 | 0.00 | 0.66 | 0.66 | 89 | 1011.8 |
| 20260906072604 | 17 | 137 | 1.6 | 4.8 | 0.00 | 0.66 | 0.66 | 89 | 1011.6 |
| 20260906071604 | 17 | 137 | 3.2 | 8.0 | 0.00 | 0.66 | 0.66 | 89 | 1011.7 |
| 20260906071104 | 17 | 130 | 3.2 | 11.3 | 0.00 | 0.66 | 0.66 | 89 | 1011.6 |
| 20260906070604 | 17 | 145 | 4.8 | 8.0 | 0.00 | 0.66 | 0.66 | 89 | 1011.7 |
| 20260906070103 | 17 | 143 | 3.2 | 8.0 | 0.03 | 0.66 | 0.66 | 89 | 1011.8 |
| 20260906065603 | 17 | 141 | 4.8 | 11.3 | 0.03 | 0.66 | 0.66 | 89 | 1011.8 |
| 20260906065104 | 17 | 142 | 1.6 | 4.8 | 0.03 | 0.66 | 0.66 | 89 | 1011.8 |
| 20260906064604 | 17 | 133 | 3.2 | 4.8 | 0.03 | 0.66 | 0.66 | 89 | 1011.8 |
| 20260906064103 | 17 | 127 | 3.2 | 12.9 | 0.03 | 0.66 | 0.66 | 89 | 1011.8 |
| 20260906062604 | 18 | 121 | 3.2 | 4.8 | 0.03 | 0.66 | 0.66 | 89 | 1011.8 |
| 20260906062103 | 18 | 132 | 3.2 | 4.8 | 0.03 | 0.66 | 0.66 | 89 | 1012.1 |
| 20260906061603 | 18 | 118 | 3.2 | 4.8 | 0.03 | 0.66 | 0.66 | 89 | 1012.1 |
| 20260906060603 | 18 | 133 | 1.6 | 3.2 | 0.03 | 0.66 | 0.66 | 89 | 1012.1 |
| 20260906060103 | 18 | 112 | 3.2 | 4.8 | 0.00 | 0.64 | 0.64 | 89 | 1012.1 |
| 20260906055604 | 18 | 181 | 0.0 | 4.8 | 0.00 | 0.64 | 0.64 | 89 | 1012.0 |
| 20260906055103 | 18 | 128 | 1.6 | 4.8 | 0.00 | 0.64 | 0.64 | 89 | 1012.0 |
| 20260906054604 | 18 | 83 | 0.0 | 4.8 | 0.00 | 0.64 | 0.64 | 89 | 1012.0 |
| 20260906054104 | 18 | 103 | 0.0 | 4.8 | 0.00 | 0.64 | 0.64 | 89 | 1012.0 |
| 20260906053603 | 18 | 130 | 0.0 | 1.6 | 0.00 | 0.64 | 0.64 | 88 | 1012.0 |
| 20260906053103 | 18 | 130 | 1.6 | 4.8 | 0.00 | 0.64 | 0.64 | 88 | 1012.0 |
| 20260906052604 | 18 | 125 | 3.2 | 4.8 | 0.00 | 0.64 | 0.64 | 88 | 1012.0 |
| 20260906052103 | 18 | 133 | 1.6 | 4.8 | 0.03 | 0.64 | 0.64 | 88 | 1012.0 |
| 20260906051604 | 18 | 147 | 1.6 | 4.8 | 0.03 | 0.64 | 0.64 | 88 | 1012.0 |
| 20260906051103 | 18 | 138 | 0.0 | 0.0 | 0.13 | 0.64 | 0.64 | 88 | 1012.0 |
| 20260906050604 | 18 | 138 | 0.0 | 3.2 | 0.38 | 0.64 | 0.64 | 88 | 1012.0 |
| 20260906050103 | 18 | 98 | 1.6 | 4.8 | 0.61 | 0.64 | 0.64 | 88 | 1012.2 |
| 20260906044604 | 18 | 135 | 4.8 | 9.7 | 0.64 | 0.64 | 0.64 | 87 | 1012.0 |
| 20260906044103 | 18 | 146 | 4.8 | 8.0 | 0.64 | 0.64 | 0.64 | 87 | 1011.9 |
| 20260906043603 | 18 | 158 | 4.8 | 11.3 | 0.64 | 0.64 | 0.64 | 87 | 1011.9 |
| 20260906043104 | 19 | 169 | 1.6 | 9.7 | 0.64 | 0.64 | 0.64 | 86 | 1011.9 |
| 20260906042103 | 19 | 172 | 4.8 | 19.3 | 0.61 | 0.61 | 0.61 | 86 | 1012.0 |
| 20260906041604 | 19 | 183 | 4.8 | 14.5 | 0.61 | 0.61 | 0.61 | 86 | 1012.0 |
| 20260906041104 | 20 | 169 | 9.7 | 19.3 | 0.51 | 0.51 | 0.51 | 85 | 1012.3 |
| 20260906040604 | 20 | 118 | 4.8 | 12.9 | 0.25 | 0.25 | 0.25 | 85 | 1012.2 |
| 20260906035604 | 20 | 108 | 8.0 | 16.1 | 0.00 | 0.00 | 0.00 | 84 | 1011.9 |
| 20260906034603 | 20 | 121 | 3.2 | 11.3 | 0.00 | 0.00 | 0.00 | 84 | 1011.9 |
| 20260906033603 | 20 | 135 | 4.8 | 12.9 | 0.00 | 0.00 | 0.00 | 84 | 1011.4 |
| 20260906033104 | 20 | 138 | 4.8 | 9.7 | 0.00 | 0.00 | 0.00 | 83 | 1011.4 |
| 20260906032604 | 20 | 134 | 1.6 | 4.8 | 0.00 | 0.00 | 0.00 | 83 | 1011.4 |
| 20260906032104 | 20 | 156 | 0.0 | 1.6 | 0.00 | 0.00 | 0.00 | 82 | 1011.4 |
| 20260906031603 | 20 | 156 | 0.0 | 1.6 | 0.00 | 0.00 | 0.00 | 82 | 1011.4 |
| 20260906031104 | 20 | 156 | 0.0 | 3.2 | 0.00 | 0.00 | 0.00 | 82 | 1011.6 |
| 20260906025604 | 20 | 127 | 1.6 | 3.2 | 0.00 | 0.00 | 0.00 | 82 | 1011.5 |
| 20260906025104 | 20 | 127 | 1.6 | 3.2 | 0.00 | 0.00 | 0.00 | 81 | 1011.5 |
| 20260906024604 | 20 | 127 | 1.6 | 3.2 | 0.00 | 0.00 | 0.00 | 81 | 1011.5 |
| 20260906024104 | 20 | 127 | 1.6 | 4.8 | 0.00 | 0.00 | 0.00 | 80 | 1011.5 |
| 20260906023603 | 21 | 130 | 1.6 | 3.2 | 0.00 | 0.00 | 0.00 | 80 | 1011.5 |
| 20260906023104 | 21 | 130 | 0.0 | 3.2 | 0.00 | 0.00 | 0.00 | 79 | 1011.3 |
| 20260906022603 | 21 | 135 | 3.2 | 8.0 | 0.00 | 0.00 | 0.00 | 79 | 1011.3 |
| 20260906021604 | 21 | 186 | 1.6 | 8.0 | 0.00 | 0.00 | 0.00 | 79 | 1011.3 |
| 20260906021104 | 21 | 171 | 1.6 | 4.8 | 0.00 | 0.00 | 0.00 | 78 | 1011.3 |
| 20260906020104 | 21 | 132 | 3.2 | 8.0 | 0.00 | 0.00 | 0.00 | 78 | 1011.3 |
| 20260906015604 | 21 | 145 | 3.2 | 4.8 | 0.00 | 0.00 | 0.00 | 77 | 1010.9 |
| 20260906015104 | 21 | 144 | 3.2 | 4.8 | 0.00 | 0.00 | 0.00 | 77 | 1010.9 |
| 20260906014603 | 21 | 150 | 3.2 | 4.8 | 0.00 | 0.00 | 0.00 | 77 | 1010.9 |
| 20260906014103 | 22 | 157 | 3.2 | 9.7 | 0.00 | 0.00 | 0.00 | 77 | 1010.9 |
| 20260906013603 | 22 | 138 | 4.8 | 11.3 | 0.00 | 0.00 | 0.00 | 77 | 1010.9 |
| 20260906013104 | 22 | 145 | 8.0 | 14.5 | 0.00 | 0.00 | 0.00 | 77 | 1010.9 |
| 20260906012603 | 22 | 138 | 3.2 | 11.3 | 0.00 | 0.00 | 0.00 | 77 | 1010.9 |
| 20260906012104 | 22 | 114 | 3.2 | 9.7 | 0.00 | 0.00 | 0.00 | 77 | 1010.9 |
| 20260906011103 | 22 | 105 | 3.2 | 9.7 | 0.00 | 0.00 | 0.00 | 76 | 1010.8 |
| 20260906010603 | 23 | 108 | 6.4 | 12.9 | 0.00 | 0.00 | 0.00 | 76 | 1010.8 |
| 20260906010103 | 23 | 0 | 4.8 | 12.9 | 0.00 | 0.00 | 0.00 | 76 | 1010.8 |
| 20260906005603 | 23 | 3 | 6.4 | 12.9 | 0.00 | 0.00 | 0.00 | 74 | 1010.6 |
| 20260906005104 | 23 | 114 | 8.0 | 19.3 | 0.00 | 0.00 | 0.00 | 74 | 1010.6 |
| 20260906004603 | 23 | 118 | 6.4 | 12.9 | 0.00 | 0.00 | 0.00 | 73 | 1010.6 |
| 20260906004104 | 23 | 64 | 4.8 | 12.9 | 0.00 | 0.00 | 0.00 | 72 | 1010.7 |
| 20260906003604 | 23 | 31 | 8.0 | 16.1 | 0.00 | 0.00 | 0.00 | 72 | 1010.6 |
| 20260906002603 | 23 | 52 | 11.3 | 19.3 | 0.00 | 0.00 | 0.00 | 70 | 1010.3 |
| 20260906001603 | 23 | 68 | 8.0 | 16.1 | 0.00 | 0.00 | 0.00 | 70 | 1009.9 |
| 20260906001103 | 23 | 55 | 9.7 | 19.3 | 0.00 | 0.00 | 0.00 | 70 | 1009.9 |
| 20260906000604 | 23 | 68 | 8.0 | 16.1 | 0.00 | 0.00 | 0.00 | 69 | 1009.9 |
| 20260905235603 | 23 | 54 | 8.0 | 16.1 | 0.00 | 0.00 | 0.00 | 68 | 1009.9 |
| 20260905235104 | 23 | 65 | 8.0 | 16.1 | 0.00 | 0.00 | 0.00 | 68 | 1009.9 |
| 20260905234603 | 23 | 44 | 6.4 | 14.5 | 0.00 | 0.00 | 0.00 | 68 | 1009.8 |
| 20260905234104 | 23 | 62 | 6.4 | 14.5 | 0.00 | 0.00 | 0.00 | 67 | 1009.9 |
| 20260905233603 | 23 | 53 | 4.8 | 16.1 | 0.00 | 0.00 | 0.00 | 68 | 1009.9 |
| 20260905233104 | 23 | 65 | 8.0 | 12.9 | 0.00 | 0.00 | 0.00 | 68 | 1009.8 |
| 20260905232604 | 23 | 59 | 6.4 | 16.1 | 0.00 | 0.00 | 0.00 | 67 | 1009.8 |
| 20260905232103 | 23 | 53 | 6.4 | 16.1 | 0.00 | 0.00 | 0.00 | 67 | 1009.8 |
| 20260905231603 | 23 | 56 | 8.0 | 12.9 | 0.00 | 0.00 | 0.00 | 67 | 1009.8 |
| 20260905231103 | 23 | 64 | 9.7 | 19.3 | 0.00 | 0.00 | 0.00 | 66 | 1009.6 |
| 20260905230603 | 23 | 59 | 8.0 | 19.3 | 0.00 | 0.00 | 0.00 | 67 | 1009.6 |
| 20260905230103 | 23 | 64 | 9.7 | 19.3 | 0.00 | 0.00 | 0.00 | 67 | 1009.6 |
| 20260905225604 | 23 | 53 | 4.8 | 11.3 | 0.00 | 0.00 | 0.00 | 67 | 1009.6 |
| 20260905224604 | 23 | 56 | 4.8 | 8.0 | 0.00 | 0.00 | 0.00 | 67 | 1009.5 |
| 20260905224103 | 23 | 58 | 3.2 | 8.0 | 0.00 | 0.00 | 0.00 | 68 | 1009.5 |
| 20260905223603 | 23 | 28 | 6.4 | 12.9 | 0.00 | 0.00 | 0.00 | 67 | 1009.5 |
| 20260905222604 | 23 | 70 | 3.2 | 9.7 | 0.00 | 0.00 | 0.00 | 67 | 1009.5 |
| 20260905222103 | 23 | 71 | 3.2 | 8.0 | 0.00 | 0.00 | 0.00 | 67 | 1009.4 |
| 20260905221603 | 23 | 61 | 4.8 | 9.7 | 0.00 | 0.00 | 0.00 | 66 | 1009.4 |
| 20260905221103 | 23 | 66 | 1.6 | 4.8 | 0.00 | 0.00 | 0.00 | 66 | 1009.3 |
| 20260905220604 | 23 | 85 | 4.8 | 9.7 | 0.00 | 0.00 | 0.00 | 66 | 1009.3 |
| 20260905220104 | 23 | 100 | 3.2 | 9.7 | 0.00 | 0.00 | 0.00 | 66 | 1009.2 |
| 20260905215604 | 23 | 90 | 3.2 | 4.8 | 0.00 | 0.00 | 0.00 | 65 | 1009.3 |
| 20260905215104 | 23 | 95 | 1.6 | 4.8 | 0.00 | 0.00 | 0.00 | 66 | 1009.4 |
| 20260905214604 | 23 | 100 | 3.2 | 4.8 | 0.00 | 0.00 | 0.00 | 65 | 1009.2 |
| 20260905214104 | 23 | 74 | 3.2 | 4.8 | 0.00 | 0.00 | 0.00 | 65 | 1009.2 |
| 20260905213604 | 24 | 61 | 3.2 | 4.8 | 0.00 | 0.00 | 0.00 | 65 | 1009.2 |
| 20260905213104 | 24 | 103 | 0.0 | 4.8 | 0.00 | 0.00 | 0.00 | 64 | 1009.0 |
| 20260905212603 | 24 | 64 | 3.2 | 8.0 | 0.00 | 0.00 | 0.00 | 64 | 1009.0 |
| 20260905211604 | 24 | 85 | 3.2 | 4.8 | 0.00 | 0.00 | 0.00 | 64 | 1009.0 |
| 20260905211103 | 24 | 89 | 3.2 | 4.8 | 0.00 | 0.00 | 0.00 | 65 | 1009.0 |
| 20260905210603 | 24 | 77 | 3.2 | 8.0 | 0.00 | 0.00 | 0.00 | 63 | 1008.9 |
| 20260905205604 | 24 | 98 | 3.2 | 4.8 | 0.00 | 0.00 | 0.00 | 64 | 1008.9 |
| 20260905205103 | 25 | 48 | 4.8 | 12.9 | 0.00 | 0.00 | 0.00 | 63 | 1008.9 |
| 20260905204603 | 25 | 41 | 8.0 | 14.5 | 0.00 | 0.00 | 0.00 | 62 | 1008.9 |
| 20260905204104 | 25 | 9 | 4.8 | 9.7 | 0.00 | 0.00 | 0.00 | 62 | 1008.8 |
| 20260905203604 | 25 | 0 | 3.2 | 9.7 | 0.00 | 0.00 | 0.00 | 61 | 1008.7 |
| 20260905203103 | 25 | 0 | 1.6 | 8.0 | 0.00 | 0.00 | 0.00 | 61 | 1008.7 |
| 20260905202103 | 25 | 8 | 4.8 | 8.0 | 0.00 | 0.00 | 0.00 | 59 | 1008.8 |
| 20260905201603 | 26 | 4 | 3.2 | 4.8 | 0.00 | 0.00 | 0.00 | 57 | 1008.8 |
| 20260905201105 | 26 | 315 | 6.4 | 12.9 | 0.00 | 0.00 | 0.00 | 56 | 1008.8 |
| 20260905200104 | 27 | 357 | 1.6 | 8.0 | 0.00 | 0.00 | 0.00 | 55 | 1008.8 |
| 20260905195603 | 27 | 344 | 3.2 | 11.3 | 0.00 | 0.00 | 0.00 | 55 | 1008.8 |
| 20260905195104 | 27 | 306 | 3.2 | 12.9 | 0.00 | 0.00 | 0.00 | 58 | 1008.8 |
| 20260905194103 | 26 | 348 | 1.6 | 8.0 | 0.00 | 0.00 | 0.00 | 57 | 1008.7 |
| 20260905193603 | 27 | 342 | 3.2 | 8.0 | 0.00 | 0.00 | 0.00 | 59 | 1008.6 |
| 20260905193104 | 27 | 344 | 3.2 | 11.3 | 0.00 | 0.00 | 0.00 | 58 | 1008.7 |
| 20260905192604 | 27 | 245 | 3.2 | 8.0 | 0.00 | 0.00 | 0.00 | 57 | 1008.8 |
| 20260905191603 | 26 | 318 | 3.2 | 8.0 | 0.00 | 0.00 | 0.00 | 60 | 1009.1 |
| 20260905191103 | 26 | 27 | 4.8 | 9.7 | 0.00 | 0.00 | 0.00 | 60 | 1009.1 |
| 20260905190604 | 26 | 282 | 3.2 | 12.9 | 0.00 | 0.00 | 0.00 | 57 | 1009.1 |
| 20260905190103 | 26 | 317 | 1.6 | 9.7 | 0.00 | 0.00 | 0.00 | 60 | 1009.1 |
| 20260905185603 | 26 | 253 | 3.2 | 9.7 | 0.00 | 0.00 | 0.00 | 56 | 1009.1 |
| 20260905185103 | 27 | 288 | 3.2 | 8.0 | 0.00 | 0.00 | 0.00 | 61 | 1009.1 |
| 20260905184603 | 26 | 303 | 4.8 | 11.3 | 0.00 | 0.00 | 0.00 | 58 | 1009.0 |
| 20260905184104 | 26 | 302 | 4.8 | 9.7 | 0.00 | 0.00 | 0.00 | 56 | 1009.2 |
| 20260905183604 | 26 | 26 | 1.6 | 12.9 | 0.00 | 0.00 | 0.00 | 58 | 1009.2 |
| 20260905183103 | 26 | 300 | 1.6 | 12.9 | 0.00 | 0.00 | 0.00 | 64 | 1009.3 |
| 20260905182604 | 26 | 29 | 1.6 | 8.0 | 0.00 | 0.00 | 0.00 | 61 | 1009.3 |
| 20260905181603 | 25 | 359 | 1.6 | 4.8 | 0.00 | 0.00 | 0.00 | 62 | 1009.6 |
| 20260905181103 | 25 | 321 | 4.8 | 11.3 | 0.00 | 0.00 | 0.00 | 58 | 1009.6 |
| 20260905180604 | 26 | 357 | 3.2 | 8.0 | 0.00 | 0.00 | 0.00 | 60 | 1009.6 |
| 20260905180103 | 26 | 297 | 4.8 | 11.3 | 0.00 | 0.00 | 0.00 | 63 | 1009.6 |
| 20260905175603 | 26 | 309 | 4.8 | 9.7 | 0.00 | 0.00 | 0.00 | 60 | 1009.6 |
| 20260905174603 | 26 | 334 | 4.8 | 9.7 | 0.00 | 0.00 | 0.00 | 61 | 1009.6 |
| 20260905173604 | 26 | 350 | 1.6 | 4.8 | 0.00 | 0.00 | 0.00 | 65 | 1009.7 |
| 20260905173103 | 26 | 317 | 3.2 | 8.0 | 0.00 | 0.00 | 0.00 | 62 | 1009.7 |
| 20260905172604 | 26 | 38 | 1.6 | 9.7 | 0.00 | 0.00 | 0.00 | 64 | 1009.7 |
| 20260905172103 | 26 | 34 | 3.2 | 8.0 | 0.00 | 0.00 | 0.00 | 63 | 1009.7 |
| 20260905171604 | 25 | 242 | 1.6 | 4.8 | 0.00 | 0.00 | 0.00 | 64 | 1009.7 |
| 20260905171103 | 25 | 328 | 3.2 | 9.7 | 0.00 | 0.00 | 0.00 | 66 | 1009.8 |
| 20260905170604 | 25 | 14 | 1.6 | 4.8 | 0.00 | 0.00 | 0.00 | 64 | 1009.7 |
| 20260905165604 | 25 | 61 | 4.8 | 11.3 | 0.00 | 0.00 | 0.00 | 66 | 1009.7 |
| 20260905165103 | 24 | 26 | 3.2 | 4.8 | 0.00 | 0.00 | 0.00 | 69 | 1009.8 |
| 20260905164103 | 23 | 320 | 3.2 | 4.8 | 0.00 | 0.00 | 0.00 | 70 | 1009.8 |
| 20260905163103 | 23 | 355 | 3.2 | 4.8 | 0.00 | 0.00 | 0.00 | 69 | 1009.8 |
| 20260905162604 | 23 | 0 | 3.2 | 8.0 | 0.00 | 0.00 | 0.00 | 70 | 1009.8 |
| 20260905162104 | 24 | 58 | 3.2 | 4.8 | 0.00 | 0.00 | 0.00 | 69 | 1009.7 |
| 20260905161604 | 25 | 48 | 3.2 | 8.0 | 0.00 | 0.00 | 0.00 | 69 | 1009.7 |
| 20260905161104 | 25 | 328 | 3.2 | 9.7 | 0.00 | 0.00 | 0.00 | 69 | 1009.7 |
| 20260905160603 | 25 | 73 | 6.4 | 11.3 | 0.00 | 0.00 | 0.00 | 68 | 1009.7 |
| 20260905160104 | 25 | 330 | 4.8 | 11.3 | 0.00 | 0.00 | 0.00 | 70 | 1009.8 |
| 20260905155604 | 25 | 9 | 4.8 | 8.0 | 0.00 | 0.00 | 0.00 | 68 | 1009.8 |
| 20260905155103 | 25 | 5 | 4.8 | 9.7 | 0.00 | 0.00 | 0.00 | 69 | 1009.8 |
| 20260905154603 | 25 | 317 | 4.8 | 11.3 | 0.00 | 0.00 | 0.00 | 68 | 1009.9 |
| 20260905154104 | 25 | 337 | 3.2 | 12.9 | 0.00 | 0.00 | 0.00 | 72 | 1009.8 |
| 20260905153603 | 24 | 317 | 4.8 | 12.9 | 0.00 | 0.00 | 0.00 | 69 | 1009.9 |
| 20260905152603 | 24 | 319 | 3.2 | 11.3 | 0.00 | 0.00 | 0.00 | 71 | 1009.9 |
| 20260905152104 | 24 | 312 | 4.8 | 14.5 | 0.00 | 0.00 | 0.00 | 69 | 1009.8 |
| 20260905151603 | 25 | 294 | 3.2 | 9.7 | 0.00 | 0.00 | 0.00 | 71 | 1009.9 |
| 20260905151103 | 24 | 34 | 3.2 | 4.8 | 0.00 | 0.00 | 0.00 | 71 | 1009.9 |
| 20260905150603 | 25 | 328 | 3.2 | 4.8 | 0.00 | 0.00 | 0.00 | 70 | 1009.9 |
| 20260905150103 | 24 | 328 | 4.8 | 11.3 | 0.00 | 0.00 | 0.00 | 70 | 1009.9 |
| 20260905145604 | 24 | 8 | 3.2 | 11.3 | 0.00 | 0.00 | 0.00 | 72 | 1009.9 |
| 20260905145104 | 23 | 18 | 4.8 | 8.0 | 0.00 | 0.00 | 0.00 | 71 | 1009.9 |
| 20260905144604 | 23 | 332 | 3.2 | 9.7 | 0.00 | 0.00 | 0.00 | 72 | 1009.9 |
| 20260905144103 | 23 | 327 | 3.2 | 8.0 | 0.00 | 0.00 | 0.00 | 70 | 1010.0 |
| 20260905143604 | 23 | 29 | 3.2 | 4.8 | 0.00 | 0.00 | 0.00 | 73 | 1010.0 |
| 20260905143103 | 22 | 284 | 3.2 | 8.0 | 0.00 | 0.00 | 0.00 | 73 | 1010.0 |
| 20260905142603 | 22 | 40 | 3.2 | 4.8 | 0.00 | 0.00 | 0.00 | 74 | 1009.9 |
| 20260905142103 | 22 | 51 | 4.8 | 8.0 | 0.00 | 0.00 | 0.00 | 74 | 1009.9 |
| 20260905141604 | 22 | 52 | 4.8 | 9.7 | 0.00 | 0.00 | 0.00 | 73 | 1010.0 |
| 20260905140603 | 22 | 50 | 6.4 | 12.9 | 0.00 | 0.00 | 0.00 | 72 | 1010.0 |
| 20260905140104 | 23 | 43 | 4.8 | 8.0 | 0.00 | 0.00 | 0.00 | 71 | 1010.0 |
| 20260905135603 | 23 | 64 | 8.0 | 14.5 | 0.00 | 0.00 | 0.00 | 71 | 1010.0 |
| 20260905135103 | 23 | 76 | 8.0 | 14.5 | 0.00 | 0.00 | 0.00 | 72 | 1010.0 |
| 20260905134603 | 23 | 23 | 8.0 | 12.9 | 0.00 | 0.00 | 0.00 | 70 | 1010.0 |
| 20260905134104 | 23 | 49 | 4.8 | 12.9 | 0.00 | 0.00 | 0.00 | 73 | 1010.0 |
| 20260905133603 | 23 | 45 | 4.8 | 11.3 | 0.00 | 0.00 | 0.00 | 71 | 1010.0 |
| 20260905133103 | 23 | 54 | 3.2 | 11.3 | 0.00 | 0.00 | 0.00 | 74 | 1010.0 |
| 20260905131603 | 22 | 41 | 4.8 | 11.3 | 0.00 | 0.00 | 0.00 | 72 | 1010.1 |
| 20260905131104 | 22 | 51 | 8.0 | 12.9 | 0.00 | 0.00 | 0.00 | 71 | 1010.1 |
| 20260905125604 | 23 | 343 | 4.8 | 8.0 | 0.00 | 0.00 | 0.00 | 74 | 1010.1 |
| 20260905125103 | 22 | 25 | 6.4 | 12.9 | 0.00 | 0.00 | 0.00 | 74 | 1010.1 |
| 20260905124603 | 22 | 340 | 3.2 | 8.0 | 0.00 | 0.00 | 0.00 | 73 | 1010.1 |
| 20260905123604 | 22 | 0 | 4.8 | 9.7 | 0.00 | 0.00 | 0.00 | 74 | 1010.2 |
| 20260905123103 | 22 | 24 | 4.8 | 8.0 | 0.00 | 0.00 | 0.00 | 76 | 1010.1 |
| 20260905122603 | 21 | 351 | 4.8 | 9.7 | 0.00 | 0.00 | 0.00 | 76 | 1010.1 |
| 20260905122104 | 21 | 0 | 3.2 | 12.9 | 0.00 | 0.00 | 0.00 | 76 | 1010.3 |
| 20260905121603 | 21 | 347 | 6.4 | 12.9 | 0.00 | 0.00 | 0.00 | 76 | 1010.0 |
| 20260905120603 | 21 | 332 | 8.0 | 14.5 | 0.00 | 0.00 | 0.00 | 77 | 1010.0 |
| 20260905114604 | 20 | 338 | 8.0 | 12.9 | 0.00 | 0.00 | 0.00 | 79 | 1010.0 |
| 20260905114103 | 20 | 310 | 4.8 | 14.5 | 0.00 | 0.00 | 0.00 | 78 | 1010.0 |
| 20260905113603 | 20 | 276 | 1.6 | 11.3 | 0.00 | 0.00 | 0.00 | 79 | 1009.8 |
| 20260905112604 | 20 | 302 | 4.8 | 9.7 | 0.00 | 0.00 | 0.00 | 78 | 1009.7 |
| 20260905111604 | 20 | 341 | 1.6 | 8.0 | 0.00 | 0.00 | 0.00 | 78 | 1009.7 |
| 20260905111104 | 20 | 34 | 1.6 | 8.0 | 0.00 | 0.00 | 0.00 | 78 | 1009.7 |
| 20260905110603 | 20 | 314 | 4.8 | 14.5 | 0.00 | 0.00 | 0.00 | 78 | 1009.6 |
| 20260905105604 | 20 | 353 | 4.8 | 9.7 | 0.00 | 0.00 | 0.00 | 78 | 1009.4 |
| 20260905105103 | 20 | 38 | 1.6 | 9.7 | 0.00 | 0.00 | 0.00 | 78 | 1009.4 |
| 20260905104104 | 20 | 22 | 1.6 | 12.9 | 0.00 | 0.00 | 0.00 | 77 | 1009.2 |
| 20260905103604 | 20 | 38 | 3.2 | 14.5 | 0.00 | 0.00 | 0.00 | 77 | 1009.2 |
| 20260905103103 | 20 | 349 | 4.8 | 11.3 | 0.00 | 0.00 | 0.00 | 76 | 1009.3 |
| 20260905102104 | 20 | 20 | 3.2 | 9.7 | 0.00 | 0.00 | 0.00 | 76 | 1009.3 |
| 20260905101603 | 20 | 330 | 4.8 | 11.3 | 0.00 | 0.00 | 0.00 | 76 | 1009.1 |
| 20260905100605 | 20 | 19 | 4.8 | 12.9 | 0.00 | 0.00 | 0.00 | 76 | 1009.1 |
| 20260905095604 | 21 | 24 | 4.8 | 11.3 | 0.00 | 0.00 | 0.00 | 76 | 1009.2 |
| 20260905095103 | 21 | 8 | 4.8 | 12.9 | 0.00 | 0.00 | 0.00 | 75 | 1009.0 |
| 20260905094604 | 21 | 12 | 8.0 | 19.3 | 0.00 | 0.00 | 0.00 | 75 | 1009.0 |
| 20260905093604 | 21 | 28 | 9.7 | 22.5 | 0.00 | 0.00 | 0.00 | 75 | 1008.9 |
| 20260905093103 | 21 | 44 | 9.7 | 19.3 | 0.00 | 0.00 | 0.00 | 75 | 1008.9 |
| 20260905092603 | 21 | 36 | 4.8 | 16.1 | 0.00 | 0.00 | 0.00 | 75 | 1008.8 |
| 20260905092103 | 21 | 36 | 4.8 | 14.5 | 0.00 | 0.00 | 0.00 | 75 | 1008.8 |
| 20260905091603 | 21 | 17 | 4.8 | 19.3 | 0.00 | 0.00 | 0.00 | 74 | 1008.8 |